sensor_id;sensor_type;location;lat;lon;timestamp;temperature;humidity
5554;DHT22;2800;49.528;8.666;2023-07-09T00:01:08;22.00;94.70
5554;DHT22;2800;49.528;8.666;2023-07-09T00:03:36;21.90;96.80
5554;DHT22;2800;49.528;8.666;2023-07-09T00:06:01;21.90;96.60
5554;DHT22;2800;49.528;8.666;2023-07-09T00:08:29;21.90;96.70
5554;DHT22;2800;49.528;8.666;2023-07-09T00:10:56;21.90;95.90
5554;DHT22;2800;49.528;8.666;2023-07-09T00:13:22;21.80;96.50
5554;DHT22;2800;49.528;8.666;2023-07-09T00:15:49;21.80;97.70
5554;DHT22;2800;49.528;8.666;2023-07-09T00:18:15;21.70;98.40
5554;DHT22;2800;49.528;8.666;2023-07-09T00:20:40;21.70;97.10
5554;DHT22;2800;49.528;8.666;2023-07-09T00:23:12;21.60;99.30
5554;DHT22;2800;49.528;8.666;2023-07-09T00:25:42;21.50;99.10
5554;DHT22;2800;49.528;8.666;2023-07-09T00:28:16;21.50;99.10
5554;DHT22;2800;49.528;8.666;2023-07-09T00:30:43;21.50;99.90
5554;DHT22;2800;49.528;8.666;2023-07-09T00:33:13;21.50;99.90
5554;DHT22;2800;49.528;8.666;2023-07-09T00:35:45;21.60;99.90
5554;DHT22;2800;49.528;8.666;2023-07-09T00:38:21;21.60;99.90
5554;DHT22;2800;49.528;8.666;2023-07-09T00:43:28;21.50;99.90
5554;DHT22;2800;49.528;8.666;2023-07-09T00:46:16;21.60;99.90
5554;DHT22;2800;49.528;8.666;2023-07-09T00:48:43;21.60;99.90
5554;DHT22;2800;49.528;8.666;2023-07-09T00:51:12;21.70;99.90
5554;DHT22;2800;49.528;8.666;2023-07-09T00:53:38;21.70;99.90
5554;DHT22;2800;49.528;8.666;2023-07-09T00:56:32;21.80;99.90
5554;DHT22;2800;49.528;8.666;2023-07-09T00:59:00;21.80;99.90
5554;DHT22;2800;49.528;8.666;2023-07-09T01:01:30;21.80;99.90
5554;DHT22;2800;49.528;8.666;2023-07-09T01:03:58;21.80;99.90
5554;DHT22;2800;49.528;8.666;2023-07-09T01:06:41;21.80;99.90
5554;DHT22;2800;49.528;8.666;2023-07-09T01:09:08;21.80;99.90
5554;DHT22;2800;49.528;8.666;2023-07-09T01:11:34;21.70;99.90
5554;DHT22;2800;49.528;8.666;2023-07-09T01:14:03;21.70;99.90
5554;DHT22;2800;49.528;8.666;2023-07-09T01:16:33;21.50;99.90
5554;DHT22;2800;49.528;8.666;2023-07-09T01:18:59;21.60;99.90
5554;DHT22;2800;49.528;8.666;2023-07-09T01:21:26;21.60;99.90
5554;DHT22;2800;49.528;8.666;2023-07-09T01:23:53;21.60;99.90
5554;DHT22;2800;49.528;8.666;2023-07-09T01:26:22;21.60;99.90
5554;DHT22;2800;49.528;8.666;2023-07-09T01:28:50;21.60;99.90
5554;DHT22;2800;49.528;8.666;2023-07-09T01:31:16;21.70;99.90
5554;DHT22;2800;49.528;8.666;2023-07-09T01:33:43;21.70;99.90
5554;DHT22;2800;49.528;8.666;2023-07-09T01:36:12;21.60;99.90
5554;DHT22;2800;49.528;8.666;2023-07-09T01:38:39;21.60;99.90
5554;DHT22;2800;49.528;8.666;2023-07-09T01:41:05;21.50;99.90
5554;DHT22;2800;49.528;8.666;2023-07-09T01:43:32;21.40;99.90
5554;DHT22;2800;49.528;8.666;2023-07-09T01:45:57;21.30;99.90
5554;DHT22;2800;49.528;8.666;2023-07-09T01:48:25;21.30;99.90
5554;DHT22;2800;49.528;8.666;2023-07-09T01:50:52;21.30;99.90
5554;DHT22;2800;49.528;8.666;2023-07-09T01:53:21;21.20;99.90
5554;DHT22;2800;49.528;8.666;2023-07-09T01:55:49;21.20;99.90
5554;DHT22;2800;49.528;8.666;2023-07-09T01:58:15;21.20;99.90
5554;DHT22;2800;49.528;8.666;2023-07-09T02:00:41;21.10;99.90
5554;DHT22;2800;49.528;8.666;2023-07-09T02:03:07;21.10;99.90
5554;DHT22;2800;49.528;8.666;2023-07-09T02:05:32;21.10;99.90
5554;DHT22;2800;49.528;8.666;2023-07-09T02:07:59;21.20;99.90
5554;DHT22;2800;49.528;8.666;2023-07-09T02:10:25;21.20;99.90
5554;DHT22;2800;49.528;8.666;2023-07-09T02:12:51;21.30;99.90
5554;DHT22;2800;49.528;8.666;2023-07-09T02:15:16;21.20;99.90
5554;DHT22;2800;49.528;8.666;2023-07-09T02:17:42;21.20;99.90
5554;DHT22;2800;49.528;8.666;2023-07-09T02:20:09;21.30;99.90
5554;DHT22;2800;49.528;8.666;2023-07-09T02:22:36;21.30;99.90
5554;DHT22;2800;49.528;8.666;2023-07-09T02:25:02;21.30;99.90
5554;DHT22;2800;49.528;8.666;2023-07-09T02:27:28;21.40;99.90
5554;DHT22;2800;49.528;8.666;2023-07-09T02:29:53;21.30;99.90
5554;DHT22;2800;49.528;8.666;2023-07-09T02:32:22;21.10;99.90
5554;DHT22;2800;49.528;8.666;2023-07-09T02:34:48;21.10;99.90
5554;DHT22;2800;49.528;8.666;2023-07-09T02:37:18;21.00;99.90
5554;DHT22;2800;49.528;8.666;2023-07-09T02:39:44;21.00;99.90
5554;DHT22;2800;49.528;8.666;2023-07-09T02:42:11;21.00;99.90
5554;DHT22;2800;49.528;8.666;2023-07-09T02:44:37;20.90;99.90
5554;DHT22;2800;49.528;8.666;2023-07-09T02:47:03;20.90;99.90
5554;DHT22;2800;49.528;8.666;2023-07-09T02:49:28;20.80;99.90
5554;DHT22;2800;49.528;8.666;2023-07-09T02:51:54;20.90;99.90
5554;DHT22;2800;49.528;8.666;2023-07-09T02:54:20;20.90;99.90
5554;DHT22;2800;49.528;8.666;2023-07-09T02:56:45;20.90;99.90
5554;DHT22;2800;49.528;8.666;2023-07-09T02:59:11;20.80;99.90
5554;DHT22;2800;49.528;8.666;2023-07-09T03:01:37;20.90;99.90
5554;DHT22;2800;49.528;8.666;2023-07-09T03:04:03;21.10;99.90
5554;DHT22;2800;49.528;8.666;2023-07-09T03:06:30;21.20;99.90
5554;DHT22;2800;49.528;8.666;2023-07-09T03:08:58;21.30;99.90
5554;DHT22;2800;49.528;8.666;2023-07-09T03:11:23;21.20;99.90
5554;DHT22;2800;49.528;8.666;2023-07-09T03:13:49;21.20;99.90
5554;DHT22;2800;49.528;8.666;2023-07-09T03:16:15;21.30;99.90
5554;DHT22;2800;49.528;8.666;2023-07-09T03:18:41;21.40;99.90
5554;DHT22;2800;49.528;8.666;2023-07-09T03:21:06;21.40;99.90
5554;DHT22;2800;49.528;8.666;2023-07-09T03:23:32;21.40;99.90
5554;DHT22;2800;49.528;8.666;2023-07-09T03:25:58;21.40;99.90
5554;DHT22;2800;49.528;8.666;2023-07-09T03:28:25;21.20;99.90
5554;DHT22;2800;49.528;8.666;2023-07-09T03:30:53;20.90;99.90
5554;DHT22;2800;49.528;8.666;2023-07-09T03:33:19;20.80;99.90
5554;DHT22;2800;49.528;8.666;2023-07-09T03:35:45;20.80;99.90
5554;DHT22;2800;49.528;8.666;2023-07-09T03:38:12;20.80;99.90
5554;DHT22;2800;49.528;8.666;2023-07-09T03:40:38;20.80;99.90
5554;DHT22;2800;49.528;8.666;2023-07-09T03:43:07;20.80;99.90
5554;DHT22;2800;49.528;8.666;2023-07-09T03:45:34;20.80;99.90
5554;DHT22;2800;49.528;8.666;2023-07-09T03:48:01;20.80;99.90
5554;DHT22;2800;49.528;8.666;2023-07-09T03:50:26;20.90;99.90
5554;DHT22;2800;49.528;8.666;2023-07-09T03:52:52;20.80;99.90
5554;DHT22;2800;49.528;8.666;2023-07-09T03:55:18;20.80;99.90
5554;DHT22;2800;49.528;8.666;2023-07-09T03:57:43;20.70;99.90
5554;DHT22;2800;49.528;8.666;2023-07-09T04:00:09;20.70;99.90
5554;DHT22;2800;49.528;8.666;2023-07-09T04:02:36;20.70;99.90
5554;DHT22;2800;49.528;8.666;2023-07-09T04:05:02;20.70;99.90
5554;DHT22;2800;49.528;8.666;2023-07-09T04:07:28;20.70;99.90
5554;DHT22;2800;49.528;8.666;2023-07-09T04:09:54;20.70;99.90
5554;DHT22;2800;49.528;8.666;2023-07-09T04:12:19;20.60;99.90
5554;DHT22;2800;49.528;8.666;2023-07-09T04:14:45;20.70;99.90
5554;DHT22;2800;49.528;8.666;2023-07-09T04:17:10;20.80;99.90
5554;DHT22;2800;49.528;8.666;2023-07-09T04:19:36;20.90;99.90
5554;DHT22;2800;49.528;8.666;2023-07-09T04:22:01;20.90;99.90
5554;DHT22;2800;49.528;8.666;2023-07-09T04:24:27;20.80;99.90
5554;DHT22;2800;49.528;8.666;2023-07-09T04:26:52;20.90;99.90
5554;DHT22;2800;49.528;8.666;2023-07-09T04:29:22;20.90;99.90
5554;DHT22;2800;49.528;8.666;2023-07-09T04:31:47;21.00;99.90
5554;DHT22;2800;49.528;8.666;2023-07-09T04:34:13;21.00;99.90
5554;DHT22;2800;49.528;8.666;2023-07-09T04:36:39;21.10;99.90
5554;DHT22;2800;49.528;8.666;2023-07-09T04:39:04;21.00;99.90
5554;DHT22;2800;49.528;8.666;2023-07-09T04:41:30;21.00;99.90
5554;DHT22;2800;49.528;8.666;2023-07-09T04:43:56;21.00;99.90
5554;DHT22;2800;49.528;8.666;2023-07-09T04:46:21;21.00;99.90
5554;DHT22;2800;49.528;8.666;2023-07-09T04:48:47;21.10;99.90
5554;DHT22;2800;49.528;8.666;2023-07-09T04:51:12;21.20;99.90
5554;DHT22;2800;49.528;8.666;2023-07-09T04:53:37;21.30;99.90
5554;DHT22;2800;49.528;8.666;2023-07-09T04:56:03;21.40;99.90
5554;DHT22;2800;49.528;8.666;2023-07-09T04:58:29;21.50;99.90
5554;DHT22;2800;49.528;8.666;2023-07-09T05:00:59;21.50;99.90
5554;DHT22;2800;49.528;8.666;2023-07-09T05:03:25;21.60;99.90
5554;DHT22;2800;49.528;8.666;2023-07-09T05:05:50;21.70;99.90
5554;DHT22;2800;49.528;8.666;2023-07-09T05:08:16;21.70;99.90
5554;DHT22;2800;49.528;8.666;2023-07-09T05:10:44;21.70;99.90
5554;DHT22;2800;49.528;8.666;2023-07-09T05:13:10;21.70;99.90
5554;DHT22;2800;49.528;8.666;2023-07-09T05:15:40;21.70;99.90
5554;DHT22;2800;49.528;8.666;2023-07-09T05:18:06;21.60;99.90
5554;DHT22;2800;49.528;8.666;2023-07-09T05:20:33;21.70;99.90
5554;DHT22;2800;49.528;8.666;2023-07-09T05:22:58;21.70;99.90
5554;DHT22;2800;49.528;8.666;2023-07-09T05:25:24;21.70;99.90
5554;DHT22;2800;49.528;8.666;2023-07-09T05:27:49;21.70;99.90
5554;DHT22;2800;49.528;8.666;2023-07-09T05:30:17;21.90;99.90
5554;DHT22;2800;49.528;8.666;2023-07-09T05:32:42;21.90;99.90
5554;DHT22;2800;49.528;8.666;2023-07-09T05:35:08;22.10;99.90
5554;DHT22;2800;49.528;8.666;2023-07-09T05:37:35;22.20;99.90
5554;DHT22;2800;49.528;8.666;2023-07-09T05:40:00;22.40;99.90
5554;DHT22;2800;49.528;8.666;2023-07-09T05:42:26;22.60;99.90
5554;DHT22;2800;49.528;8.666;2023-07-09T05:44:51;22.70;99.90
5554;DHT22;2800;49.528;8.666;2023-07-09T05:47:17;22.80;99.90
5554;DHT22;2800;49.528;8.666;2023-07-09T05:49:43;22.80;99.90
5554;DHT22;2800;49.528;8.666;2023-07-09T05:52:09;22.90;99.90
5554;DHT22;2800;49.528;8.666;2023-07-09T05:54:34;23.10;99.90
5554;DHT22;2800;49.528;8.666;2023-07-09T05:57:00;23.20;99.90
5554;DHT22;2800;49.528;8.666;2023-07-09T05:59:25;23.20;99.90
5554;DHT22;2800;49.528;8.666;2023-07-09T06:01:51;23.30;99.90
5554;DHT22;2800;49.528;8.666;2023-07-09T06:04:16;23.30;99.90
5554;DHT22;2800;49.528;8.666;2023-07-09T06:06:42;23.50;99.90
5554;DHT22;2800;49.528;8.666;2023-07-09T06:09:10;23.60;99.90
5554;DHT22;2800;49.528;8.666;2023-07-09T06:11:36;23.70;99.90
5554;DHT22;2800;49.528;8.666;2023-07-09T06:14:01;23.70;99.90
5554;DHT22;2800;49.528;8.666;2023-07-09T06:16:27;23.90;99.90
5554;DHT22;2800;49.528;8.666;2023-07-09T06:18:53;24.00;99.90
5554;DHT22;2800;49.528;8.666;2023-07-09T06:21:18;24.10;99.90
5554;DHT22;2800;49.528;8.666;2023-07-09T06:23:45;24.20;99.90
5554;DHT22;2800;49.528;8.666;2023-07-09T06:26:11;24.30;99.90
5554;DHT22;2800;49.528;8.666;2023-07-09T06:28:36;24.30;99.90
5554;DHT22;2800;49.528;8.666;2023-07-09T06:31:02;24.40;99.90
5554;DHT22;2800;49.528;8.666;2023-07-09T06:33:28;24.30;99.90
5554;DHT22;2800;49.528;8.666;2023-07-09T06:35:56;24.50;99.90
5554;DHT22;2800;49.528;8.666;2023-07-09T06:38:22;24.70;99.90
5554;DHT22;2800;49.528;8.666;2023-07-09T06:40:48;24.60;99.90
5554;DHT22;2800;49.528;8.666;2023-07-09T06:43:14;24.70;99.90
5554;DHT22;2800;49.528;8.666;2023-07-09T06:45:51;24.80;99.90
5554;DHT22;2800;49.528;8.666;2023-07-09T06:48:17;25.00;99.90
5554;DHT22;2800;49.528;8.666;2023-07-09T06:50:43;25.30;99.90
5554;DHT22;2800;49.528;8.666;2023-07-09T06:53:08;25.60;99.90
5554;DHT22;2800;49.528;8.666;2023-07-09T06:55:35;25.80;99.90
5554;DHT22;2800;49.528;8.666;2023-07-09T06:58:00;26.30;99.90
5554;DHT22;2800;49.528;8.666;2023-07-09T07:00:26;26.50;99.90
5554;DHT22;2800;49.528;8.666;2023-07-09T07:02:51;27.00;99.90
5554;DHT22;2800;49.528;8.666;2023-07-09T07:05:18;27.50;99.90
5554;DHT22;2800;49.528;8.666;2023-07-09T07:07:44;27.80;99.90
5554;DHT22;2800;49.528;8.666;2023-07-09T07:10:10;27.70;99.90
5554;DHT22;2800;49.528;8.666;2023-07-09T07:12:44;27.60;99.90
5554;DHT22;2800;49.528;8.666;2023-07-09T07:15:11;27.40;99.90
5554;DHT22;2800;49.528;8.666;2023-07-09T07:17:38;28.00;99.90
5554;DHT22;2800;49.528;8.666;2023-07-09T07:20:05;28.20;99.90
5554;DHT22;2800;49.528;8.666;2023-07-09T07:22:31;28.70;99.90
5554;DHT22;2800;49.528;8.666;2023-07-09T07:24:56;29.00;99.90
5554;DHT22;2800;49.528;8.666;2023-07-09T07:27:22;29.20;99.90
5554;DHT22;2800;49.528;8.666;2023-07-09T07:29:47;28.60;99.90
5554;DHT22;2800;49.528;8.666;2023-07-09T07:32:13;28.50;99.90
5554;DHT22;2800;49.528;8.666;2023-07-09T07:34:38;28.80;99.90
5554;DHT22;2800;49.528;8.666;2023-07-09T07:37:04;28.90;99.90
5554;DHT22;2800;49.528;8.666;2023-07-09T07:39:29;28.80;99.90
5554;DHT22;2800;49.528;8.666;2023-07-09T07:41:55;28.90;99.90
5554;DHT22;2800;49.528;8.666;2023-07-09T07:44:21;29.00;99.90
5554;DHT22;2800;49.528;8.666;2023-07-09T07:46:47;29.30;99.90
5554;DHT22;2800;49.528;8.666;2023-07-09T07:49:13;29.40;99.90
5554;DHT22;2800;49.528;8.666;2023-07-09T07:51:39;29.90;99.90
5554;DHT22;2800;49.528;8.666;2023-07-09T07:54:05;29.90;99.90
5554;DHT22;2800;49.528;8.666;2023-07-09T07:56:31;30.20;99.90
5554;DHT22;2800;49.528;8.666;2023-07-09T07:58:57;30.20;99.90
5554;DHT22;2800;49.528;8.666;2023-07-09T08:01:22;30.50;99.90
5554;DHT22;2800;49.528;8.666;2023-07-09T08:03:48;30.60;99.90
5554;DHT22;2800;49.528;8.666;2023-07-09T08:06:13;30.90;99.90
5554;DHT22;2800;49.528;8.666;2023-07-09T08:08:39;30.90;99.90
5554;DHT22;2800;49.528;8.666;2023-07-09T08:11:06;31.20;99.90
5554;DHT22;2800;49.528;8.666;2023-07-09T08:13:36;31.20;99.90
5554;DHT22;2800;49.528;8.666;2023-07-09T08:16:03;31.50;99.90
5554;DHT22;2800;49.528;8.666;2023-07-09T08:18:28;31.20;99.90
5554;DHT22;2800;49.528;8.666;2023-07-09T08:20:54;31.40;99.90
5554;DHT22;2800;49.528;8.666;2023-07-09T08:23:20;31.70;99.90
5554;DHT22;2800;49.528;8.666;2023-07-09T08:25:53;32.20;99.90
5554;DHT22;2800;49.528;8.666;2023-07-09T08:28:19;32.40;99.90
5554;DHT22;2800;49.528;8.666;2023-07-09T08:30:45;31.90;99.90
5554;DHT22;2800;49.528;8.666;2023-07-09T08:33:10;32.20;99.90
5554;DHT22;2800;49.528;8.666;2023-07-09T08:35:36;32.00;99.90
5554;DHT22;2800;49.528;8.666;2023-07-09T08:38:02;32.10;99.90
5554;DHT22;2800;49.528;8.666;2023-07-09T08:40:27;32.60;99.90
5554;DHT22;2800;49.528;8.666;2023-07-09T08:42:59;33.10;99.90
5554;DHT22;2800;49.528;8.666;2023-07-09T08:45:38;33.10;99.90
5554;DHT22;2800;49.528;8.666;2023-07-09T08:50:36;33.10;99.90
5554;DHT22;2800;49.528;8.666;2023-07-09T08:53:04;33.60;99.90
5554;DHT22;2800;49.528;8.666;2023-07-09T08:55:32;34.10;99.90
5554;DHT22;2800;49.528;8.666;2023-07-09T08:58:11;33.70;99.90
5554;DHT22;2800;49.528;8.666;2023-07-09T09:03:42;33.70;99.90
5554;DHT22;2800;49.528;8.666;2023-07-09T09:06:15;33.70;99.90
5554;DHT22;2800;49.528;8.666;2023-07-09T09:11:25;34.40;99.90
5554;DHT22;2800;49.528;8.666;2023-07-09T09:13:55;34.00;99.90
5554;DHT22;2800;49.528;8.666;2023-07-09T09:16:30;33.70;99.90
5554;DHT22;2800;49.528;8.666;2023-07-09T09:18:58;34.80;99.90
5554;DHT22;2800;49.528;8.666;2023-07-09T09:21:34;34.70;99.90
5554;DHT22;2800;49.528;8.666;2023-07-09T09:24:35;35.30;99.90
5554;DHT22;2800;49.528;8.666;2023-07-09T09:26:59;35.20;99.90
5554;DHT22;2800;49.528;8.666;2023-07-09T09:29:26;35.80;99.90
5554;DHT22;2800;49.528;8.666;2023-07-09T09:31:54;34.60;99.90
5554;DHT22;2800;49.528;8.666;2023-07-09T09:34:27;35.50;99.90
5554;DHT22;2800;49.528;8.666;2023-07-09T09:36:54;35.90;99.90
5554;DHT22;2800;49.528;8.666;2023-07-09T09:39:20;36.40;99.90
5554;DHT22;2800;49.528;8.666;2023-07-09T09:41:46;36.00;99.90
5554;DHT22;2800;49.528;8.666;2023-07-09T09:44:26;36.50;99.90
5554;DHT22;2800;49.528;8.666;2023-07-09T09:46:52;36.70;99.90
5554;DHT22;2800;49.528;8.666;2023-07-09T09:49:18;36.60;99.90
5554;DHT22;2800;49.528;8.666;2023-07-09T09:51:45;36.20;99.90
5554;DHT22;2800;49.528;8.666;2023-07-09T09:54:18;35.10;99.90
5554;DHT22;2800;49.528;8.666;2023-07-09T09:56:44;35.60;99.90
5554;DHT22;2800;49.528;8.666;2023-07-09T09:59:31;35.70;99.90
5554;DHT22;2800;49.528;8.666;2023-07-09T10:01:59;35.30;99.90
5554;DHT22;2800;49.528;8.666;2023-07-09T10:04:25;35.90;99.90
5554;DHT22;2800;49.528;8.666;2023-07-09T10:06:56;36.70;99.90
5554;DHT22;2800;49.528;8.666;2023-07-09T10:11:57;37.10;99.90
5554;DHT22;2800;49.528;8.666;2023-07-09T10:17:04;36.70;99.90
5554;DHT22;2800;49.528;8.666;2023-07-09T10:33:12;38.00;99.90
5554;DHT22;2800;49.528;8.666;2023-07-09T10:36:00;37.90;99.90
5554;DHT22;2800;49.528;8.666;2023-07-09T10:41:33;36.60;99.90
5554;DHT22;2800;49.528;8.666;2023-07-09T10:46:53;37.20;99.90
5554;DHT22;2800;49.528;8.666;2023-07-09T10:49:21;37.60;99.90
5554;DHT22;2800;49.528;8.666;2023-07-09T10:52:04;37.40;99.90
5554;DHT22;2800;49.528;8.666;2023-07-09T10:57:27;38.20;99.90
5554;DHT22;2800;49.528;8.666;2023-07-09T10:59:54;38.80;99.90
5554;DHT22;2800;49.528;8.666;2023-07-09T11:02:28;38.00;99.90
5554;DHT22;2800;49.528;8.666;2023-07-09T11:04:58;38.50;99.90
5554;DHT22;2800;49.528;8.666;2023-07-09T11:07:54;36.50;99.90
5554;DHT22;2800;49.528;8.666;2023-07-09T11:10:30;37.00;99.90
5554;DHT22;2800;49.528;8.666;2023-07-09T11:13:11;37.50;99.90
5554;DHT22;2800;49.528;8.666;2023-07-09T11:15:45;37.80;99.90
5554;DHT22;2800;49.528;8.666;2023-07-09T11:18:23;38.40;99.90
5554;DHT22;2800;49.528;8.666;2023-07-09T11:20:59;39.10;99.90
5554;DHT22;2800;49.528;8.666;2023-07-09T11:23:25;38.40;99.90
5554;DHT22;2800;49.528;8.666;2023-07-09T11:26:03;38.80;99.90
5554;DHT22;2800;49.528;8.666;2023-07-09T11:28:37;39.60;99.90
5554;DHT22;2800;49.528;8.666;2023-07-09T11:31:20;39.30;99.90
5554;DHT22;2800;49.528;8.666;2023-07-09T11:33:49;38.40;99.90
5554;DHT22;2800;49.528;8.666;2023-07-09T11:36:27;38.20;99.90
5554;DHT22;2800;49.528;8.666;2023-07-09T11:38:54;38.00;99.90
5554;DHT22;2800;49.528;8.666;2023-07-09T11:46:55;39.00;99.90
5554;DHT22;2800;49.528;8.666;2023-07-09T11:49:25;39.20;99.90
5554;DHT22;2800;49.528;8.666;2023-07-09T11:51:59;40.10;99.90
5554;DHT22;2800;49.528;8.666;2023-07-09T11:54:25;39.80;99.90
5554;DHT22;2800;49.528;8.666;2023-07-09T11:56:59;39.30;99.90
5554;DHT22;2800;49.528;8.666;2023-07-09T11:59:25;40.80;99.90
5554;DHT22;2800;49.528;8.666;2023-07-09T12:01:52;40.30;99.90
5554;DHT22;2800;49.528;8.666;2023-07-09T12:04:23;39.60;99.90
5554;DHT22;2800;49.528;8.666;2023-07-09T12:06:53;38.60;99.90
5554;DHT22;2800;49.528;8.666;2023-07-09T12:09:22;38.20;99.90
5554;DHT22;2800;49.528;8.666;2023-07-09T12:11:49;37.10;99.90
5554;DHT22;2800;49.528;8.666;2023-07-09T12:14:21;38.80;99.90
5554;DHT22;2800;49.528;8.666;2023-07-09T12:16:50;39.50;99.90
5554;DHT22;2800;49.528;8.666;2023-07-09T12:19:18;40.20;99.90
5554;DHT22;2800;49.528;8.666;2023-07-09T12:21:46;40.40;99.90
5554;DHT22;2800;49.528;8.666;2023-07-09T12:24:20;41.30;99.90
5554;DHT22;2800;49.528;8.666;2023-07-09T12:27:00;40.70;99.90
5554;DHT22;2800;49.528;8.666;2023-07-09T12:29:28;40.50;99.90
5554;DHT22;2800;49.528;8.666;2023-07-09T12:31:56;40.60;99.90
5554;DHT22;2800;49.528;8.666;2023-07-09T12:34:22;40.30;99.90
5554;DHT22;2800;49.528;8.666;2023-07-09T12:36:49;40.20;99.90
5554;DHT22;2800;49.528;8.666;2023-07-09T12:39:20;39.80;99.90
5554;DHT22;2800;49.528;8.666;2023-07-09T12:41:48;39.40;99.90
5554;DHT22;2800;49.528;8.666;2023-07-09T12:44:20;39.40;99.90
5554;DHT22;2800;49.528;8.666;2023-07-09T12:46:47;39.40;99.90
5554;DHT22;2800;49.528;8.666;2023-07-09T12:51:45;39.40;99.90
5554;DHT22;2800;49.528;8.666;2023-07-09T12:54:16;39.80;99.90
5554;DHT22;2800;49.528;8.666;2023-07-09T12:56:44;38.60;99.90
5554;DHT22;2800;49.528;8.666;2023-07-09T12:59:17;38.70;99.90
5554;DHT22;2800;49.528;8.666;2023-07-09T13:01:54;40.00;99.90
5554;DHT22;2800;49.528;8.666;2023-07-09T13:04:20;39.70;99.90
5554;DHT22;2800;49.528;8.666;2023-07-09T13:06:46;40.50;99.90
5554;DHT22;2800;49.528;8.666;2023-07-09T13:09:18;40.80;99.90
5554;DHT22;2800;49.528;8.666;2023-07-09T13:11:45;40.80;99.90
5554;DHT22;2800;49.528;8.666;2023-07-09T13:14:29;39.30;99.90
5554;DHT22;2800;49.528;8.666;2023-07-09T13:17:05;38.50;99.90
5554;DHT22;2800;49.528;8.666;2023-07-09T13:19:31;39.40;99.90
5554;DHT22;2800;49.528;8.666;2023-07-09T13:21:56;39.40;99.90
5554;DHT22;2800;49.528;8.666;2023-07-09T13:24:24;39.60;99.90
5554;DHT22;2800;49.528;8.666;2023-07-09T13:26:50;38.80;99.90
5554;DHT22;2800;49.528;8.666;2023-07-09T13:29:18;39.00;99.90
5554;DHT22;2800;49.528;8.666;2023-07-09T13:31:45;39.70;99.90
5554;DHT22;2800;49.528;8.666;2023-07-09T13:34:23;40.00;99.90
5554;DHT22;2800;49.528;8.666;2023-07-09T13:36:49;40.20;99.90
5554;DHT22;2800;49.528;8.666;2023-07-09T13:39:16;40.10;99.90
5554;DHT22;2800;49.528;8.666;2023-07-09T13:41:46;39.70;99.90
5554;DHT22;2800;49.528;8.666;2023-07-09T13:44:25;39.40;99.90
5554;DHT22;2800;49.528;8.666;2023-07-09T13:46:51;39.00;99.90
5554;DHT22;2800;49.528;8.666;2023-07-09T13:49:21;38.70;99.90
5554;DHT22;2800;49.528;8.666;2023-07-09T13:51:49;38.90;99.90
5554;DHT22;2800;49.528;8.666;2023-07-09T13:54:26;39.80;99.90
5554;DHT22;2800;49.528;8.666;2023-07-09T13:56:52;40.20;99.90
5554;DHT22;2800;49.528;8.666;2023-07-09T13:59:22;40.50;99.90
5554;DHT22;2800;49.528;8.666;2023-07-09T14:01:50;41.30;99.90
5554;DHT22;2800;49.528;8.666;2023-07-09T14:04:18;41.20;99.90
5554;DHT22;2800;49.528;8.666;2023-07-09T14:06:44;40.60;99.90
5554;DHT22;2800;49.528;8.666;2023-07-09T14:09:11;39.70;99.90
5554;DHT22;2800;49.528;8.666;2023-07-09T14:11:50;40.30;99.90
5554;DHT22;2800;49.528;8.666;2023-07-09T14:14:29;40.60;99.90
5554;DHT22;2800;49.528;8.666;2023-07-09T14:16:55;40.60;99.90
5554;DHT22;2800;49.528;8.666;2023-07-09T14:19:23;41.50;99.90
5554;DHT22;2800;49.528;8.666;2023-07-09T14:21:49;42.40;99.90
5554;DHT22;2800;49.528;8.666;2023-07-09T14:26:44;42.90;99.90
5554;DHT22;2800;49.528;8.666;2023-07-09T14:29:11;43.00;99.90
5554;DHT22;2800;49.528;8.666;2023-07-09T14:31:37;42.00;99.90
5554;DHT22;2800;49.528;8.666;2023-07-09T14:34:22;40.90;99.90
5554;DHT22;2800;49.528;8.666;2023-07-09T14:36:49;40.20;99.90
5554;DHT22;2800;49.528;8.666;2023-07-09T14:39:15;39.80;99.90
5554;DHT22;2800;49.528;8.666;2023-07-09T14:41:41;38.40;99.90
5554;DHT22;2800;49.528;8.666;2023-07-09T14:44:28;37.90;99.90
5554;DHT22;2800;49.528;8.666;2023-07-09T14:46:57;37.70;99.90
5554;DHT22;2800;49.528;8.666;2023-07-09T14:49:24;38.00;99.90
5554;DHT22;2800;49.528;8.666;2023-07-09T14:51:50;38.30;99.90
5554;DHT22;2800;49.528;8.666;2023-07-09T14:56:49;38.50;99.90
5554;DHT22;2800;49.528;8.666;2023-07-09T14:59:15;38.20;99.90
5554;DHT22;2800;49.528;8.666;2023-07-09T15:01:40;38.20;99.90
5554;DHT22;2800;49.528;8.666;2023-07-09T15:04:25;38.40;99.90
5554;DHT22;2800;49.528;8.666;2023-07-09T15:06:53;39.10;99.90
5554;DHT22;2800;49.528;8.666;2023-07-09T15:09:21;39.10;99.90
5554;DHT22;2800;49.528;8.666;2023-07-09T15:11:50;38.50;99.90
5554;DHT22;2800;49.528;8.666;2023-07-09T15:14:16;38.80;99.90
5554;DHT22;2800;49.528;8.666;2023-07-09T15:16:41;38.70;99.90
5554;DHT22;2800;49.528;8.666;2023-07-09T15:19:14;38.80;99.90
5554;DHT22;2800;49.528;8.666;2023-07-09T15:21:40;37.60;99.90
5554;DHT22;2800;49.528;8.666;2023-07-09T15:24:13;37.50;99.90
5554;DHT22;2800;49.528;8.666;2023-07-09T15:26:40;37.30;99.90
5554;DHT22;2800;49.528;8.666;2023-07-09T15:29:13;37.10;99.90
5554;DHT22;2800;49.528;8.666;2023-07-09T15:31:39;37.10;99.90
5554;DHT22;2800;49.528;8.666;2023-07-09T15:34:05;36.90;99.90
5554;DHT22;2800;49.528;8.666;2023-07-09T15:36:32;36.80;99.90
5554;DHT22;2800;49.528;8.666;2023-07-09T15:38:57;36.90;99.90
5554;DHT22;2800;49.528;8.666;2023-07-09T15:41:23;36.80;99.90
5554;DHT22;2800;49.528;8.666;2023-07-09T15:43:48;36.90;99.90
5554;DHT22;2800;49.528;8.666;2023-07-09T15:46:20;37.10;99.90
5554;DHT22;2800;49.528;8.666;2023-07-09T15:48:47;37.00;99.90
5554;DHT22;2800;49.528;8.666;2023-07-09T15:51:13;37.00;99.90
5554;DHT22;2800;49.528;8.666;2023-07-09T15:53:38;36.90;99.90
5554;DHT22;2800;49.528;8.666;2023-07-09T15:56:22;37.20;99.90
5554;DHT22;2800;49.528;8.666;2023-07-09T15:58:49;37.00;99.90
5554;DHT22;2800;49.528;8.666;2023-07-09T16:01:16;37.10;99.90
5554;DHT22;2800;49.528;8.666;2023-07-09T16:03:46;36.80;99.90
5554;DHT22;2800;49.528;8.666;2023-07-09T16:06:13;36.80;99.90
5554;DHT22;2800;49.528;8.666;2023-07-09T16:08:38;36.80;99.90
5554;DHT22;2800;49.528;8.666;2023-07-09T16:11:19;36.50;99.90
5554;DHT22;2800;49.528;8.666;2023-07-09T16:13:46;36.30;99.90
5554;DHT22;2800;49.528;8.666;2023-07-09T16:16:21;36.40;99.90
5554;DHT22;2800;49.528;8.666;2023-07-09T16:18:47;36.50;99.90
5554;DHT22;2800;49.528;8.666;2023-07-09T16:23:47;36.20;99.90
5554;DHT22;2800;49.528;8.666;2023-07-09T16:26:12;36.00;99.90
5554;DHT22;2800;49.528;8.666;2023-07-09T16:28:38;35.90;99.90
5554;DHT22;2800;49.528;8.666;2023-07-09T16:31:03;35.80;99.90
5554;DHT22;2800;49.528;8.666;2023-07-09T16:33:29;35.80;99.90
5554;DHT22;2800;49.528;8.666;2023-07-09T16:35:55;35.70;99.90
5554;DHT22;2800;49.528;8.666;2023-07-09T16:38:21;35.60;99.90
5554;DHT22;2800;49.528;8.666;2023-07-09T16:40:46;35.50;99.90
5554;DHT22;2800;49.528;8.666;2023-07-09T16:43:18;35.40;99.90
5554;DHT22;2800;49.528;8.666;2023-07-09T16:45:44;35.40;99.90
5554;DHT22;2800;49.528;8.666;2023-07-09T16:48:21;35.40;99.90
5554;DHT22;2800;49.528;8.666;2023-07-09T16:50:51;35.40;99.90
5554;DHT22;2800;49.528;8.666;2023-07-09T16:53:19;35.20;99.40
5554;DHT22;2800;49.528;8.666;2023-07-09T16:55:46;35.00;99.90
5554;DHT22;2800;49.528;8.666;2023-07-09T17:00:43;34.90;99.90
5554;DHT22;2800;49.528;8.666;2023-07-09T17:03:11;34.70;99.00
5554;DHT22;2800;49.528;8.666;2023-07-09T17:05:38;34.60;99.90